createdAt,value
2023-10-23T00:00:26.274Z,8.40
2023-10-23T00:02:58.541Z,8.30
2023-10-23T00:05:31.660Z,8.20
2023-10-23T00:08:04.082Z,8.20
2023-10-23T00:10:36.533Z,8.10
2023-10-23T00:13:08.642Z,8.10
2023-10-23T00:15:41.056Z,8.10
2023-10-23T00:18:13.347Z,8.20
2023-10-23T00:20:45.530Z,8.20
2023-10-23T00:23:17.614Z,8.20
2023-10-23T00:25:49.707Z,8.10
2023-10-23T00:28:22.392Z,8.10
2023-10-23T00:30:54.732Z,8.10
2023-10-23T00:33:27.961Z,8.10
2023-10-23T00:36:00.252Z,8.10
2023-10-23T00:38:33.223Z,8.10
2023-10-23T00:41:08.165Z,8.10
2023-10-23T00:43:41.055Z,8.10
2023-10-23T00:46:20.356Z,8.10
2023-10-23T00:48:54.429Z,8.10
2023-10-23T00:51:28.562Z,8.10
2023-10-23T00:54:02.312Z,8.10
2023-10-23T00:56:36.047Z,8.00
2023-10-23T00:59:09.942Z,8.00
2023-10-23T01:01:45.700Z,8.00
2023-10-23T01:04:18.146Z,8.00
2023-10-23T01:06:51.598Z,8.10
2023-10-23T01:09:24.258Z,8.10
2023-10-23T01:11:56.543Z,8.00
2023-10-23T01:14:28.711Z,8.10
2023-10-23T01:17:00.877Z,8.10
2023-10-23T01:19:32.989Z,8.10
2023-10-23T01:22:05.231Z,8.10
2023-10-23T01:24:40.577Z,8.10
2023-10-23T01:27:13.181Z,8.20
2023-10-23T01:29:45.278Z,8.10
2023-10-23T01:32:17.425Z,8.10
2023-10-23T01:34:49.519Z,8.00
2023-10-23T01:37:22.660Z,7.90
2023-10-23T01:39:55.285Z,8.00
2023-10-23T01:42:30.154Z,8.00
2023-10-23T01:45:02.740Z,8.10
2023-10-23T01:47:34.881Z,8.00
2023-10-23T01:50:07.945Z,7.90
2023-10-23T01:52:40.510Z,8.00
2023-10-23T01:55:12.997Z,7.90
2023-10-23T01:57:45.547Z,7.80
2023-10-23T02:00:18.857Z,7.80
2023-10-23T02:02:51.073Z,7.90
2023-10-23T02:05:23.897Z,7.90
2023-10-23T02:07:56.904Z,7.90
2023-10-23T02:10:30.345Z,7.90
2023-10-23T02:13:02.470Z,7.90
2023-10-23T02:15:34.713Z,7.80
2023-10-23T02:18:08.869Z,7.80
2023-10-23T02:20:41.128Z,7.80
2023-10-23T02:23:15.642Z,7.80
2023-10-23T02:25:50.153Z,7.80
2023-10-23T02:28:22.360Z,7.90
2023-10-23T02:30:55.203Z,7.90
2023-10-23T02:33:27.784Z,7.80
2023-10-23T02:35:59.953Z,7.90
2023-10-23T02:38:32.531Z,7.80
2023-10-23T02:41:05.289Z,7.80
2023-10-23T02:43:37.491Z,7.90
2023-10-23T02:46:11.217Z,7.80
2023-10-23T02:48:44.170Z,7.80
2023-10-23T02:51:16.483Z,7.80
2023-10-23T02:53:48.641Z,7.80
2023-10-23T02:56:21.094Z,7.80
2023-10-23T02:58:53.712Z,7.70
2023-10-23T03:01:26.225Z,7.70
2023-10-23T03:03:59.132Z,7.70
2023-10-23T03:06:31.768Z,7.60
2023-10-23T03:09:04.925Z,7.50
2023-10-23T03:11:37.722Z,7.50
2023-10-23T03:14:10.138Z,7.50
2023-10-23T03:16:42.289Z,7.60
2023-10-23T03:19:15.021Z,7.70
2023-10-23T03:21:47.207Z,7.70
2023-10-23T03:24:20.514Z,7.70
2023-10-23T03:26:52.775Z,7.60
2023-10-23T03:29:24.914Z,7.60
2023-10-23T03:31:58.034Z,7.50
2023-10-23T03:34:30.174Z,7.50
2023-10-23T03:37:02.317Z,7.50
2023-10-23T03:39:34.496Z,7.50
2023-10-23T03:42:06.973Z,7.40
2023-10-23T03:44:39.342Z,7.40
2023-10-23T03:47:12.033Z,7.40
2023-10-23T03:49:45.072Z,7.30
2023-10-23T03:52:18.323Z,7.20
2023-10-23T03:54:50.489Z,7.20
2023-10-23T03:57:23.192Z,7.30
2023-10-23T03:59:55.322Z,7.30
2023-10-23T04:02:27.936Z,7.30
2023-10-23T04:05:01.737Z,7.30
2023-10-23T04:07:33.938Z,7.30
2023-10-23T04:10:15.195Z,7.20
2023-10-23T04:12:47.966Z,7.20
2023-10-23T04:15:20.209Z,7.10
2023-10-23T04:17:52.613Z,7.10
2023-10-23T04:20:24.894Z,7.10
2023-10-23T04:22:57.145Z,7.10
2023-10-23T04:25:29.237Z,7.00
2023-10-23T04:28:01.425Z,7.00
2023-10-23T04:30:33.589Z,6.90
2023-10-23T04:33:06.326Z,6.90
2023-10-23T04:35:38.449Z,6.90
2023-10-23T04:38:10.559Z,7.00
2023-10-23T04:40:45.939Z,7.00
2023-10-23T04:43:18.101Z,7.00
2023-10-23T04:45:50.952Z,6.90
2023-10-23T04:48:23.379Z,6.90
2023-10-23T04:51:00.775Z,6.80
2023-10-23T04:53:32.870Z,6.80
2023-10-23T04:56:08.084Z,6.70
2023-10-23T04:58:40.901Z,6.70
2023-10-23T05:01:17.663Z,6.70
2023-10-23T05:03:52.473Z,6.70
2023-10-23T05:06:28.301Z,6.70
2023-10-23T05:09:00.571Z,6.70
2023-10-23T05:11:34.274Z,6.70
2023-10-23T05:14:06.561Z,6.70
2023-10-23T05:16:38.843Z,6.70
2023-10-23T05:19:10.974Z,6.70
2023-10-23T05:21:43.110Z,6.70
2023-10-23T05:24:15.300Z,6.80
2023-10-23T05:26:47.622Z,6.70
2023-10-23T05:29:19.775Z,6.60
2023-10-23T05:31:52.108Z,6.70
2023-10-23T05:34:24.260Z,6.70
2023-10-23T05:36:56.415Z,6.70
2023-10-23T05:39:29.139Z,6.60
2023-10-23T05:42:01.276Z,6.70
2023-10-23T05:44:33.419Z,6.70
2023-10-23T05:47:05.576Z,6.70
2023-10-23T05:49:37.884Z,6.80
2023-10-23T05:52:10.564Z,6.70
2023-10-23T05:54:42.726Z,6.70
2023-10-23T05:57:15.028Z,6.70
2023-10-23T05:59:47.296Z,6.70
2023-10-23T06:02:19.454Z,6.70
2023-10-23T06:04:51.541Z,6.70
2023-10-23T06:07:23.781Z,6.70
2023-10-23T06:09:57.878Z,6.70
2023-10-23T06:12:30.038Z,6.80
2023-10-23T06:15:02.216Z,6.80
2023-10-23T06:17:34.432Z,6.70
2023-10-23T06:20:07.381Z,6.70
2023-10-23T06:22:39.511Z,6.70
2023-10-23T06:25:12.050Z,6.70
2023-10-23T06:27:44.282Z,6.80
2023-10-23T06:30:16.422Z,6.80
2023-10-23T06:32:49.814Z,6.80
2023-10-23T06:35:22.213Z,6.80
2023-10-23T06:37:54.374Z,6.80
2023-10-23T06:40:26.468Z,6.90
2023-10-23T06:42:58.617Z,7.10
2023-10-23T06:45:46.761Z,7.10
2023-10-23T06:48:23.200Z,7.30
2023-10-23T06:50:56.217Z,7.30
2023-10-23T06:53:28.548Z,7.40
2023-10-23T06:56:00.684Z,7.50
2023-10-23T06:58:32.890Z,7.50
2023-10-23T07:01:09.305Z,7.60
2023-10-23T07:03:42.213Z,7.70
2023-10-23T07:06:14.593Z,7.80
2023-10-23T07:08:47.303Z,7.80
2023-10-23T07:11:20.360Z,7.90
2023-10-23T07:13:52.554Z,8.00
2023-10-23T07:16:25.023Z,8.10
2023-10-23T07:18:57.219Z,8.30
2023-10-23T07:21:29.456Z,8.40
2023-10-23T07:24:01.811Z,8.50
2023-10-23T07:26:34.428Z,8.60
2023-10-23T07:29:06.568Z,8.70
2023-10-23T07:31:38.724Z,8.90
2023-10-23T07:34:10.934Z,9.10
2023-10-23T07:36:43.193Z,9.30
2023-10-23T07:39:16.117Z,9.40
2023-10-23T07:41:48.371Z,9.50
2023-10-23T07:44:22.208Z,9.50
2023-10-23T07:46:54.455Z,9.60
2023-10-23T07:49:26.732Z,9.70
2023-10-23T07:51:59.133Z,9.80
2023-10-23T07:54:32.574Z,9.80
2023-10-23T07:57:05.056Z,9.90
2023-10-23T07:59:37.494Z,9.90
2023-10-23T08:02:10.511Z,10.00
2023-10-23T08:04:42.870Z,10.10
2023-10-23T08:07:15.405Z,10.20
2023-10-23T08:09:48.183Z,10.40
2023-10-23T08:12:20.327Z,10.30
2023-10-23T08:14:52.960Z,10.40
2023-10-23T08:20:03.691Z,10.70
2023-10-23T08:22:37.065Z,10.80
2023-10-23T08:25:09.587Z,11.00
2023-10-23T08:27:41.821Z,11.20
2023-10-23T08:30:14.677Z,11.30
2023-10-23T08:32:52.988Z,11.30
2023-10-23T08:35:29.159Z,11.30
2023-10-23T08:38:01.486Z,11.30
2023-10-23T08:40:33.731Z,11.30
2023-10-23T08:43:07.784Z,11.30
2023-10-23T08:45:43.686Z,11.40
2023-10-23T08:48:16.155Z,11.50
2023-10-23T08:50:48.377Z,11.50
2023-10-23T08:53:24.615Z,11.50
2023-10-23T08:55:56.862Z,11.60
2023-10-23T08:58:32.325Z,11.70
2023-10-23T09:01:04.995Z,11.80
2023-10-23T09:04:04.087Z,11.90
2023-10-23T09:06:29.847Z,12.00
2023-10-23T09:09:02.863Z,12.00
2023-10-23T09:11:46.190Z,12.00
2023-10-23T09:14:29.610Z,12.10
2023-10-23T09:17:02.149Z,12.20
2023-10-23T09:19:38.821Z,12.20
2023-10-23T09:22:13.212Z,12.30
2023-10-23T09:24:46.706Z,12.30
2023-10-23T09:27:24.031Z,12.40
2023-10-23T09:30:01.489Z,12.50
2023-10-23T09:32:34.600Z,12.60
2023-10-23T09:35:08.354Z,12.70
2023-10-23T09:37:40.793Z,12.90
2023-10-23T09:40:13.480Z,12.90
2023-10-23T09:42:46.287Z,13.00
2023-10-23T09:45:19.459Z,13.10
2023-10-23T09:47:54.281Z,13.10
2023-10-23T09:50:28.710Z,13.10
2023-10-23T09:53:02.101Z,13.20
2023-10-23T09:55:36.503Z,13.40
2023-10-23T09:58:16.065Z,13.50
2023-10-23T10:00:50.046Z,13.60
2023-10-23T10:03:24.086Z,13.70
2023-10-23T10:06:10.639Z,13.70
2023-10-23T10:08:49.401Z,13.70
2023-10-23T10:11:23.899Z,13.80
2023-10-23T10:13:56.725Z,13.90
2023-10-23T10:16:29.272Z,14.00
2023-10-23T10:19:05.675Z,14.00
2023-10-23T10:21:57.352Z,14.10
2023-10-23T10:24:30.306Z,14.20
2023-10-23T10:27:07.524Z,14.20
2023-10-23T10:29:40.327Z,14.20
2023-10-23T10:32:13.950Z,14.30
2023-10-23T10:34:46.682Z,14.30
2023-10-23T10:37:25.849Z,14.50
2023-10-23T10:39:59.677Z,14.40
2023-10-23T10:42:36.167Z,14.50
2023-10-23T10:45:09.297Z,14.50
2023-10-23T10:47:45.011Z,14.40
2023-10-23T10:50:37.877Z,14.50
2023-10-23T10:53:15.410Z,14.50
2023-10-23T10:55:47.655Z,14.60
2023-10-23T10:58:20.917Z,14.60
2023-10-23T11:00:53.164Z,14.60
2023-10-23T11:03:27.990Z,14.70
2023-10-23T11:06:00.254Z,14.70
2023-10-23T11:08:32.596Z,14.80
2023-10-23T11:11:07.907Z,14.90
2023-10-23T11:13:41.677Z,14.90
2023-10-23T11:16:13.923Z,15.00
2023-10-23T11:18:46.343Z,15.10
2023-10-23T11:21:23.502Z,15.10
2023-10-23T11:23:59.823Z,15.10
2023-10-23T11:26:32.005Z,15.20
2023-10-23T11:29:04.873Z,15.30
2023-10-23T11:31:41.404Z,15.40
2023-10-23T11:34:13.632Z,15.40
2023-10-23T11:36:50.650Z,15.30
2023-10-23T11:39:23.318Z,15.20
2023-10-23T11:41:57.884Z,15.30
2023-10-23T11:44:31.942Z,15.30
2023-10-23T11:47:09.377Z,15.30
2023-10-23T11:49:50.216Z,15.40
2023-10-23T11:52:22.759Z,15.40
2023-10-23T11:54:54.963Z,15.50
2023-10-23T11:57:27.135Z,15.40
2023-10-23T11:59:59.287Z,15.40
2023-10-23T12:02:31.618Z,15.40
2023-10-23T12:05:05.051Z,15.40
2023-10-23T12:07:37.887Z,15.50
2023-10-23T12:10:11.673Z,15.50
2023-10-23T12:12:44.646Z,15.60
2023-10-23T12:15:17.186Z,15.80
2023-10-23T12:17:49.581Z,15.80
2023-10-23T12:20:24.862Z,15.80
2023-10-23T12:22:57.267Z,15.60
2023-10-23T12:25:29.678Z,15.60
2023-10-23T12:28:02.058Z,15.50
2023-10-23T12:30:34.218Z,15.30
2023-10-23T12:33:17.281Z,15.30
2023-10-23T12:35:54.844Z,15.30
2023-10-23T12:38:27.391Z,15.30
2023-10-23T12:41:00.176Z,15.20
2023-10-23T12:43:32.783Z,15.30
2023-10-23T12:46:05.185Z,15.40
2023-10-23T12:48:39.528Z,15.40
2023-10-23T12:51:12.315Z,15.50
2023-10-23T12:53:44.494Z,15.60
2023-10-23T12:56:16.892Z,15.80
2023-10-23T12:58:49.182Z,15.80
2023-10-23T13:01:21.523Z,15.90
2023-10-23T13:03:53.712Z,15.90
2023-10-23T13:06:26.026Z,16.00
2023-10-23T13:08:58.493Z,16.20
2023-10-23T13:11:31.827Z,16.40
2023-10-23T13:14:04.517Z,16.50
2023-10-23T13:16:36.913Z,16.50
2023-10-23T13:19:09.390Z,16.50
2023-10-23T13:21:41.725Z,16.40
2023-10-23T13:24:14.090Z,16.70
2023-10-23T13:26:46.470Z,16.60
2023-10-23T13:29:18.816Z,16.50
2023-10-23T13:31:51.336Z,16.50
2023-10-23T13:34:24.106Z,16.60
2023-10-23T13:36:56.575Z,16.80
2023-10-23T13:39:28.998Z,17.10
2023-10-23T13:42:01.421Z,17.60
2023-10-23T13:44:34.399Z,18.30
2023-10-23T13:47:07.107Z,18.40
2023-10-23T13:49:39.816Z,18.50
2023-10-23T13:52:12.941Z,18.80
2023-10-23T13:54:48.412Z,19.80
2023-10-23T13:57:21.387Z,21.20
2023-10-23T13:59:55.032Z,22.20
2023-10-23T14:02:27.341Z,22.10
2023-10-23T14:04:59.883Z,20.70
2023-10-23T14:07:32.447Z,19.60
2023-10-23T14:10:05.753Z,18.90
2023-10-23T14:12:37.995Z,18.40
2023-10-23T14:15:10.676Z,17.80
2023-10-23T14:17:43.000Z,17.40
2023-10-23T14:20:15.550Z,17.30
2023-10-23T14:22:47.752Z,17.10
2023-10-23T14:25:20.081Z,16.90
2023-10-23T14:27:52.575Z,17.00
2023-10-23T14:30:25.063Z,17.00
2023-10-23T14:32:57.309Z,16.80
2023-10-23T14:35:32.756Z,16.60
2023-10-23T14:38:05.745Z,16.50
2023-10-23T14:40:37.943Z,16.40
2023-10-23T14:43:11.053Z,16.30
2023-10-23T14:45:43.292Z,16.30
2023-10-23T14:48:15.612Z,16.30
2023-10-23T14:50:47.980Z,16.30
2023-10-23T14:53:20.336Z,16.20
2023-10-23T14:55:53.262Z,16.10
2023-10-23T14:58:25.864Z,16.10
2023-10-23T15:00:59.355Z,16.10
2023-10-23T15:03:31.607Z,16.10
2023-10-23T15:06:13.564Z,16.10
2023-10-23T15:08:46.669Z,16.00
2023-10-23T15:11:21.985Z,16.00
2023-10-23T15:13:54.480Z,15.80
2023-10-23T15:16:26.810Z,15.80
2023-10-23T15:18:59.064Z,15.70
2023-10-23T15:21:31.298Z,15.60
2023-10-23T15:24:03.957Z,15.40
2023-10-23T15:26:36.426Z,15.40
2023-10-23T15:29:08.771Z,15.30
2023-10-23T15:31:41.142Z,15.20
2023-10-23T15:34:13.515Z,15.20
2023-10-23T15:36:46.481Z,15.10
2023-10-23T15:39:18.815Z,15.00
2023-10-23T15:41:51.124Z,14.90
2023-10-23T15:44:27.794Z,14.80
2023-10-23T15:47:00.988Z,14.80
2023-10-23T15:49:33.268Z,14.70
2023-10-23T15:52:06.358Z,14.60
2023-10-23T15:54:39.142Z,14.50
2023-10-23T15:57:12.761Z,14.30
2023-10-23T15:59:46.995Z,14.30
2023-10-23T16:02:19.179Z,14.20
2023-10-23T16:04:52.388Z,14.20
2023-10-23T16:07:27.115Z,14.10
2023-10-23T16:10:00.219Z,14.10
2023-10-23T16:12:32.618Z,14.00
2023-10-23T16:15:06.140Z,13.90
2023-10-23T16:17:38.338Z,13.80
2023-10-23T16:20:12.700Z,13.80
2023-10-23T16:22:44.933Z,13.80
2023-10-23T17:12:59.399Z,12.40
2023-10-23T17:15:31.637Z,12.30
2023-10-23T17:18:03.848Z,12.20
2023-10-23T17:20:41.876Z,12.30
2023-10-23T17:23:14.544Z,12.30
2023-10-23T17:25:47.260Z,12.40
2023-10-23T17:28:19.661Z,12.40
2023-10-23T17:30:56.640Z,12.40
2023-10-23T17:33:31.947Z,12.40
2023-10-23T17:36:05.413Z,12.50
2023-10-23T17:38:37.635Z,12.50
2023-10-23T17:41:17.411Z,12.50
2023-10-23T17:43:49.479Z,12.50
2023-10-23T17:46:21.984Z,12.60
2023-10-23T17:48:54.958Z,12.60
2023-10-23T17:51:27.325Z,12.60
2023-10-23T17:54:05.487Z,12.60
2023-10-23T17:56:38.555Z,12.70
2023-10-23T17:59:10.839Z,12.60
2023-10-23T18:01:46.173Z,12.60
2023-10-23T18:04:18.351Z,12.60
2023-10-23T18:06:50.649Z,12.60
2023-10-23T18:09:22.771Z,12.60
2023-10-23T18:11:54.913Z,12.60
2023-10-23T18:14:26.998Z,12.60
2023-10-23T18:16:59.641Z,12.60
2023-10-23T18:19:32.722Z,12.50
2023-10-23T18:22:04.961Z,12.50
2023-10-23T18:24:37.113Z,12.60
2023-10-23T18:27:09.764Z,12.50
2023-10-23T18:29:42.345Z,12.50
2023-10-23T18:32:14.485Z,12.50
2023-10-23T18:34:46.779Z,12.50
2023-10-23T18:37:19.332Z,12.50
2023-10-23T18:39:52.081Z,12.50
2023-10-23T18:42:25.593Z,12.40
2023-10-23T18:44:59.645Z,12.40
2023-10-23T18:47:35.760Z,12.40
2023-10-23T18:50:08.986Z,12.40
2023-10-23T18:52:41.130Z,12.30
2023-10-23T18:55:13.756Z,12.30
2023-10-23T18:57:45.900Z,12.30
2023-10-23T19:00:18.650Z,12.30
2023-10-23T19:02:51.136Z,12.20
2023-10-23T19:05:23.341Z,12.10
2023-10-23T19:07:55.476Z,12.10
2023-10-23T19:10:27.673Z,12.00
2023-10-23T19:12:59.929Z,12.00
2023-10-23T19:15:32.099Z,11.90
2023-10-23T19:18:04.762Z,11.90
2023-10-23T19:20:37.419Z,11.90
2023-10-23T19:23:09.844Z,11.90
2023-10-23T19:25:42.000Z,11.80
2023-10-23T19:28:14.185Z,11.90
2023-10-23T19:30:46.623Z,11.90
2023-10-23T19:33:19.004Z,11.90
2023-10-23T19:35:51.326Z,11.90
2023-10-23T19:38:24.494Z,11.90
2023-10-23T19:41:02.075Z,11.90
2023-10-23T19:43:41.916Z,11.90
2023-10-23T19:46:15.084Z,11.90
2023-10-23T19:48:48.596Z,11.80
2023-10-23T19:51:21.896Z,11.80
2023-10-23T19:53:54.620Z,11.80
2023-10-23T19:56:30.460Z,11.80
2023-10-23T19:59:05.522Z,11.80
2023-10-23T20:01:38.147Z,11.80
2023-10-23T20:04:10.505Z,11.80
2023-10-23T20:06:42.984Z,11.70
2023-10-23T20:09:15.142Z,11.70
2023-10-23T20:11:47.831Z,11.70
2023-10-23T20:14:20.052Z,11.60
2023-10-23T20:16:52.297Z,11.70
2023-10-23T20:19:24.835Z,11.70
2023-10-23T20:21:59.664Z,11.70
2023-10-23T20:24:32.261Z,11.70
2023-10-23T20:27:04.907Z,11.60
2023-10-23T20:29:37.094Z,11.60
2023-10-23T20:32:09.342Z,11.50
2023-10-23T20:34:41.556Z,11.50
2023-10-23T20:37:13.857Z,11.50
2023-10-23T20:39:46.159Z,11.50
2023-10-23T20:42:18.884Z,11.40
2023-10-23T20:44:53.305Z,11.30
2023-10-23T20:47:25.545Z,11.30
2023-10-23T20:49:59.039Z,11.30
2023-10-23T20:52:32.262Z,11.30
2023-10-23T20:55:06.667Z,11.30
2023-10-23T20:57:39.123Z,11.20
2023-10-23T21:00:12.178Z,11.20
2023-10-23T21:02:44.407Z,11.20
2023-10-23T21:05:16.733Z,11.10
2023-10-23T21:07:48.900Z,11.10
2023-10-23T21:10:21.257Z,11.10
2023-10-23T21:12:53.389Z,11.10
2023-10-23T21:15:25.576Z,11.10
2023-10-23T21:17:58.511Z,11.10
2023-10-23T21:20:30.706Z,11.10
2023-10-23T21:23:03.706Z,11.10
2023-10-23T21:25:35.968Z,11.00
2023-10-23T21:28:08.245Z,11.00
2023-10-23T21:30:40.457Z,11.00
2023-10-23T21:33:12.976Z,11.10
2023-10-23T21:35:45.145Z,11.10
2023-10-23T21:38:17.292Z,11.10
2023-10-23T21:40:50.114Z,11.10
2023-10-23T21:43:22.812Z,11.10
2023-10-23T21:46:15.152Z,11.10
2023-10-23T21:48:47.122Z,11.10
2023-10-23T21:51:20.250Z,11.10
2023-10-23T21:53:52.633Z,11.10
2023-10-23T21:57:15.349Z,11.10
2023-10-23T21:59:19.615Z,11.10
2023-10-23T22:01:53.978Z,11.10
2023-10-23T22:04:27.652Z,11.10
2023-10-23T22:07:01.398Z,11.10
2023-10-23T22:09:35.062Z,11.00
2023-10-23T22:12:10.657Z,11.00
2023-10-23T22:14:43.099Z,10.90
2023-10-23T22:17:15.618Z,10.90
2023-10-23T22:19:47.846Z,10.90
2023-10-23T22:22:19.989Z,10.90
2023-10-23T22:24:52.413Z,10.90
2023-10-23T22:27:24.588Z,10.90
2023-10-23T22:29:56.860Z,10.80
2023-10-23T22:32:29.271Z,10.80
2023-10-23T22:35:03.055Z,10.80
2023-10-23T22:38:02.061Z,10.70
2023-10-23T22:40:28.146Z,10.80
2023-10-23T22:43:00.352Z,10.70
2023-10-23T22:45:33.106Z,10.70
2023-10-23T22:48:07.737Z,10.70
2023-10-23T22:50:40.069Z,10.60
2023-10-23T22:53:12.414Z,10.60
2023-10-23T22:55:45.109Z,10.60
2023-10-23T22:58:19.511Z,10.70
2023-10-23T23:00:51.861Z,10.70
2023-10-23T23:03:24.743Z,10.60
2023-10-23T23:06:09.862Z,10.60
2023-10-23T23:08:43.842Z,10.60
2023-10-23T23:11:16.209Z,10.60
2023-10-23T23:13:51.165Z,10.50
2023-10-23T23:16:25.701Z,10.60
2023-10-23T23:19:00.704Z,10.50
2023-10-23T23:21:38.188Z,10.50
2023-10-23T23:24:11.000Z,10.50
2023-10-23T23:26:43.416Z,10.50
2023-10-23T23:29:15.943Z,10.50
2023-10-23T23:31:48.244Z,10.50
2023-10-23T23:34:20.488Z,10.50
2023-10-23T23:36:52.621Z,10.50
2023-10-23T23:39:24.845Z,10.50
2023-10-23T23:41:56.988Z,10.50
2023-10-23T23:44:29.119Z,10.60
2023-10-23T23:47:01.274Z,10.50
2023-10-23T23:49:33.884Z,10.50
2023-10-23T23:52:06.164Z,10.60
2023-10-23T23:54:38.430Z,10.50
2023-10-23T23:57:12.272Z,10.50
2023-10-23T23:59:45.080Z,10.50
